createdAt,value
2023-03-13T00:00:03.167Z,2.06
2023-03-13T00:01:02.758Z,2.04
2023-03-13T00:02:02.544Z,2.05
2023-03-13T00:03:02.773Z,2.08
2023-03-13T00:04:02.973Z,2.05
2023-03-13T00:05:02.787Z,2.08
2023-03-13T00:06:02.676Z,2.05
2023-03-13T00:07:03.263Z,2.06
2023-03-13T00:08:02.650Z,2.04
2023-03-13T00:09:03.085Z,2.03
2023-03-13T00:10:02.697Z,2.05
2023-03-13T00:11:02.922Z,2.05
2023-03-13T00:12:02.341Z,2.04
2023-03-13T00:13:01.937Z,2.10
2023-03-13T00:14:01.976Z,2.05
2023-03-13T00:15:02.058Z,2.05
2023-03-13T00:16:02.378Z,2.05
2023-03-13T00:17:02.896Z,2.06
2023-03-13T00:18:02.600Z,2.05
2023-03-13T00:19:02.662Z,2.05
2023-03-13T00:20:02.335Z,2.05
2023-03-13T00:21:02.341Z,2.06
2023-03-13T00:22:02.737Z,2.06
2023-03-13T00:23:03.235Z,2.08
2023-03-13T00:24:02.930Z,2.09
2023-03-13T00:25:03.249Z,2.04
2023-03-13T00:26:03.212Z,2.08
2023-03-13T00:27:02.166Z,2.07
2023-03-13T00:28:02.533Z,2.05
2023-03-13T00:29:02.114Z,2.05
2023-03-13T00:30:02.722Z,2.04
2023-03-13T00:31:02.533Z,2.06
2023-03-13T00:32:02.758Z,2.07
2023-03-13T00:33:03.168Z,2.08
2023-03-13T00:34:03.008Z,2.05
2023-03-13T00:35:02.902Z,2.07
2023-03-13T00:36:02.767Z,2.07
2023-03-13T00:37:02.821Z,2.08
2023-03-13T00:38:02.556Z,2.08
2023-03-13T00:39:02.307Z,2.09
2023-03-13T00:40:02.785Z,2.07
2023-03-13T00:41:02.412Z,2.09
2023-03-13T00:42:02.914Z,2.06
2023-03-13T00:43:02.718Z,2.08
2023-03-13T00:44:03.027Z,2.06
2023-03-13T00:45:02.734Z,2.05
2023-03-13T00:46:02.784Z,2.07
2023-03-13T00:47:03.200Z,2.07
2023-03-13T00:48:03.280Z,2.05
2023-03-13T00:49:02.849Z,2.07
2023-03-13T00:50:02.898Z,2.10
2023-03-13T00:51:03.205Z,2.07
2023-03-13T00:52:02.154Z,2.05
2023-03-13T00:53:02.138Z,2.06
2023-03-13T00:54:02.012Z,2.08
2023-03-13T00:55:02.398Z,2.06
2023-03-13T00:56:02.135Z,2.11
2023-03-13T00:57:02.652Z,2.11
2023-03-13T00:58:02.370Z,2.11
2023-03-13T00:59:02.644Z,2.10
2023-03-13T01:00:02.965Z,2.11
2023-03-13T01:01:02.334Z,2.11
2023-03-13T01:02:02.522Z,2.12
2023-03-13T01:03:02.326Z,2.12
2023-03-13T01:04:01.988Z,2.10
2023-03-13T01:05:02.237Z,2.12
2023-03-13T01:06:02.226Z,2.12
2023-03-13T01:07:02.979Z,2.12
2023-03-13T01:08:02.947Z,2.12
2023-03-13T01:09:02.417Z,2.13
2023-03-13T01:10:02.886Z,2.14
2023-03-13T01:11:02.826Z,2.12
2023-03-13T01:12:02.837Z,2.14
2023-03-13T01:13:03.335Z,2.15
2023-03-13T01:14:02.939Z,2.14
2023-03-13T01:15:02.717Z,2.18
2023-03-13T01:16:02.752Z,2.17
2023-03-13T01:17:02.003Z,2.17
2023-03-13T01:18:02.029Z,2.17
2023-03-13T01:19:02.215Z,2.17
2023-03-13T01:20:02.549Z,2.13
2023-03-13T01:21:02.279Z,2.17
2023-03-13T01:22:02.394Z,2.17
2023-03-13T01:23:02.690Z,2.18
2023-03-13T01:24:03.051Z,2.18
2023-03-13T01:25:02.518Z,2.18
2023-03-13T01:26:02.477Z,2.14
2023-03-13T01:27:02.949Z,2.19
2023-03-13T01:28:03.151Z,2.16
2023-03-13T01:29:02.967Z,2.16
2023-03-13T01:30:03.201Z,2.16
2023-03-13T01:31:02.684Z,2.16
2023-03-13T01:32:01.974Z,2.17
2023-03-13T01:33:02.070Z,2.15
2023-03-13T01:34:02.055Z,2.15
2023-03-13T01:35:01.996Z,2.18
2023-03-13T01:36:02.497Z,2.18
2023-03-13T01:37:02.223Z,2.16
2023-03-13T01:38:02.186Z,2.17
2023-03-13T01:39:02.041Z,2.19
2023-03-13T01:40:02.173Z,2.17
2023-03-13T01:41:02.005Z,2.15
2023-03-13T01:42:02.995Z,2.15
2023-03-13T01:43:02.574Z,2.16
2023-03-13T01:44:03.233Z,2.19
2023-03-13T01:45:03.098Z,2.16
2023-03-13T01:46:02.960Z,2.17
2023-03-13T01:47:02.043Z,2.16
2023-03-13T01:48:02.140Z,2.18
2023-03-13T01:49:02.048Z,2.17
2023-03-13T01:50:02.218Z,2.17
2023-03-13T01:51:02.438Z,2.16
2023-03-13T01:52:02.585Z,2.13
2023-03-13T01:53:02.460Z,2.14
2023-03-13T01:54:03.122Z,2.15
2023-03-13T01:55:02.649Z,2.17
2023-03-13T01:56:02.900Z,2.17
2023-03-13T01:57:01.857Z,2.16
2023-03-13T01:58:01.917Z,2.18
2023-03-13T01:59:02.372Z,2.15
2023-03-13T02:00:02.431Z,2.17
2023-03-13T02:01:02.009Z,2.18
2023-03-13T02:02:03.248Z,2.15
2023-03-13T02:03:03.388Z,2.16
2023-03-13T02:04:03.474Z,2.17
2023-03-13T02:05:03.628Z,2.16
2023-03-13T02:06:02.958Z,2.15
2023-03-13T02:07:03.079Z,2.15
2023-03-13T02:08:03.617Z,2.17
2023-03-13T02:09:03.512Z,2.16
2023-03-13T02:10:03.123Z,2.15
2023-03-13T02:11:03.561Z,2.15
2023-03-13T02:12:02.867Z,2.16
2023-03-13T02:13:02.728Z,2.15
2023-03-13T02:14:02.811Z,2.14
2023-03-13T02:15:02.902Z,2.15
2023-03-13T02:16:02.609Z,2.17
2023-03-13T02:17:02.830Z,2.16
2023-03-13T02:18:02.789Z,2.13
2023-03-13T02:19:02.948Z,2.16
2023-03-13T02:20:02.458Z,2.14
2023-03-13T02:21:02.985Z,2.13
2023-03-13T02:22:02.657Z,2.15
2023-03-13T02:23:03.061Z,2.16
2023-03-13T02:24:02.859Z,2.15
2023-03-13T02:25:02.946Z,2.15
2023-03-13T02:26:02.630Z,2.14
2023-03-13T02:27:03.022Z,2.18
2023-03-13T02:28:02.506Z,2.16
2023-03-13T02:29:02.975Z,2.14
2023-03-13T02:30:02.728Z,2.15
2023-03-13T02:31:03.185Z,2.17
2023-03-13T02:32:03.176Z,2.15
2023-03-13T02:33:03.490Z,2.15
2023-03-13T02:34:02.895Z,2.17
2023-03-13T02:35:03.285Z,2.19
2023-03-13T02:36:03.014Z,2.15
2023-03-13T02:37:03.562Z,2.15
2023-03-13T02:38:03.005Z,2.15
2023-03-13T02:39:03.060Z,2.16
2023-03-13T02:40:03.483Z,2.16
2023-03-13T02:41:03.062Z,2.16
2023-03-13T02:42:03.159Z,2.17
2023-03-13T02:43:03.203Z,2.14
2023-03-13T02:44:02.717Z,2.15
2023-03-13T02:45:02.810Z,2.16
2023-03-13T02:46:03.288Z,2.18
2023-03-13T02:47:03.839Z,2.18
2023-03-13T02:48:03.500Z,2.19
2023-03-13T02:49:03.293Z,2.16
2023-03-13T02:50:03.346Z,2.20
2023-03-13T02:51:03.417Z,2.16
2023-03-13T02:52:02.615Z,2.19
2023-03-13T02:53:02.445Z,2.17
2023-03-13T02:54:02.862Z,2.19
2023-03-13T02:55:02.763Z,2.19
2023-03-13T02:56:02.590Z,2.21
2023-03-13T02:57:03.005Z,2.20
2023-03-13T02:58:02.851Z,2.23
2023-03-13T02:59:02.818Z,2.24
2023-03-13T03:00:02.802Z,2.24
2023-03-13T03:01:02.559Z,2.26
2023-03-13T03:02:02.001Z,2.26
2023-03-13T03:03:02.226Z,2.25
2023-03-13T03:04:02.234Z,2.23
2023-03-13T03:05:02.312Z,2.26
2023-03-13T03:06:02.009Z,2.25
2023-03-13T03:07:02.666Z,2.26
2023-03-13T03:08:02.923Z,2.26
2023-03-13T03:09:02.398Z,2.28
2023-03-13T03:10:02.967Z,2.24
2023-03-13T03:11:02.970Z,2.22
2023-03-13T03:12:03.122Z,2.24
2023-03-13T03:13:02.506Z,2.23
2023-03-13T03:14:02.768Z,2.25
2023-03-13T03:15:02.480Z,2.25
2023-03-13T03:16:02.757Z,2.23
2023-03-13T03:17:03.077Z,2.24
2023-03-13T03:18:02.924Z,2.26
2023-03-13T03:19:03.237Z,2.22
2023-03-13T03:20:03.067Z,2.24
2023-03-13T03:21:02.982Z,2.23
2023-03-13T03:22:01.687Z,2.25
2023-03-13T03:23:02.286Z,2.27
2023-03-13T03:24:01.758Z,2.23
2023-03-13T03:25:02.168Z,2.23
2023-03-13T03:26:01.962Z,2.25
2023-03-13T03:27:01.877Z,2.23
2023-03-13T03:28:01.947Z,2.21
2023-03-13T03:29:02.220Z,2.23
2023-03-13T03:30:02.160Z,2.20
2023-03-13T03:31:02.128Z,2.23
2023-03-13T03:32:02.633Z,2.23
2023-03-13T03:33:02.619Z,2.21
2023-03-13T03:34:02.865Z,2.24
2023-03-13T03:35:02.676Z,2.22
2023-03-13T03:36:03.066Z,2.22
2023-03-13T03:37:02.194Z,2.24
2023-03-13T03:38:02.670Z,2.22
2023-03-13T03:39:02.702Z,2.24
2023-03-13T03:40:02.719Z,2.23
2023-03-13T03:41:02.250Z,2.21
2023-03-13T03:42:02.327Z,2.23
2023-03-13T03:43:02.787Z,2.23
2023-03-13T03:44:02.552Z,2.22
2023-03-13T03:45:02.686Z,2.21
2023-03-13T03:46:02.310Z,2.22
2023-03-13T03:47:02.721Z,2.23
2023-03-13T03:48:02.668Z,2.19
2023-03-13T03:49:02.847Z,2.23
2023-03-13T03:50:02.570Z,2.22
2023-03-13T03:51:03.006Z,2.24
2023-03-13T03:52:01.801Z,2.24
2023-03-13T03:53:02.029Z,2.22
2023-03-13T03:54:01.776Z,2.24
2023-03-13T03:55:01.619Z,2.22
2023-03-13T03:56:01.723Z,2.23
2023-03-13T03:57:02.066Z,2.21
2023-03-13T03:58:02.379Z,2.23
2023-03-13T03:59:02.054Z,2.22
2023-03-13T04:00:02.602Z,2.24
2023-03-13T04:01:02.179Z,2.24
2023-03-13T04:02:02.644Z,2.23
2023-03-13T04:03:02.975Z,2.24
2023-03-13T04:04:02.527Z,2.23
2023-03-13T04:05:02.997Z,2.19
2023-03-13T04:06:03.114Z,2.15
2023-03-13T04:07:03.156Z,2.11
2023-03-13T04:08:03.567Z,2.15
2023-03-13T04:09:03.636Z,2.13
2023-03-13T04:10:03.123Z,2.13
2023-03-13T04:11:03.095Z,2.14
2023-03-13T04:12:02.597Z,2.13
2023-03-13T04:13:02.884Z,2.11
2023-03-13T04:14:02.416Z,2.12
2023-03-13T04:15:02.885Z,2.11
2023-03-13T04:16:02.457Z,2.11
2023-03-13T04:17:02.965Z,2.09
2023-03-13T04:18:02.985Z,2.11
2023-03-13T04:19:02.621Z,2.10
2023-03-13T04:20:03.034Z,2.12
2023-03-13T04:21:02.715Z,2.12
2023-03-13T04:22:03.098Z,2.11
2023-03-13T04:23:02.846Z,2.12
2023-03-13T04:24:03.234Z,2.12
2023-03-13T04:25:03.146Z,2.11
2023-03-13T04:26:03.402Z,2.11
2023-03-13T04:27:03.551Z,2.12
2023-03-13T04:28:04.153Z,2.12
2023-03-13T04:29:03.568Z,2.12
2023-03-13T04:30:03.871Z,2.07
2023-03-13T04:31:03.696Z,2.11
2023-03-13T04:32:02.704Z,2.10
2023-03-13T04:33:02.454Z,2.10
2023-03-13T04:34:02.852Z,2.11
2023-03-13T04:35:02.617Z,2.12
2023-03-13T04:36:02.456Z,2.11
2023-03-13T04:37:02.897Z,2.09
2023-03-13T04:38:02.615Z,2.11
2023-03-13T04:39:02.910Z,2.09
2023-03-13T04:40:03.200Z,2.11
2023-03-13T04:41:02.637Z,2.12
2023-03-13T04:42:02.986Z,2.11
2023-03-13T04:43:02.709Z,2.09
2023-03-13T04:44:03.000Z,2.07
2023-03-13T04:45:03.379Z,2.09
2023-03-13T04:46:02.930Z,2.10
2023-03-13T04:47:03.233Z,2.10
2023-03-13T04:48:03.054Z,2.09
2023-03-13T04:49:03.442Z,2.09
2023-03-13T04:50:03.216Z,2.10
2023-03-13T04:51:03.503Z,2.11
2023-03-13T04:52:02.875Z,2.07
2023-03-13T04:53:02.662Z,2.08
2023-03-13T04:54:02.946Z,2.08
2023-03-13T04:55:02.681Z,2.08
2023-03-13T04:56:03.153Z,2.09
2023-03-13T04:57:03.352Z,2.10
2023-03-13T04:58:03.075Z,2.09
2023-03-13T04:59:03.367Z,2.09
2023-03-13T05:00:03.130Z,2.09
2023-03-13T05:01:03.097Z,3.45
2023-03-13T05:02:02.547Z,3.64
2023-03-13T05:03:02.301Z,3.77
2023-03-13T05:04:02.774Z,3.85
2023-03-13T05:05:02.843Z,3.97
2023-03-13T05:06:02.336Z,4.03
2023-03-13T05:07:02.809Z,4.11
2023-03-13T05:08:03.016Z,4.18
2023-03-13T05:09:02.528Z,4.21
2023-03-13T05:10:02.822Z,4.26
2023-03-13T05:11:02.539Z,4.32
2023-03-13T05:12:02.967Z,4.36
2023-03-13T05:13:02.747Z,4.42
2023-03-13T05:14:03.200Z,4.45
2023-03-13T05:15:02.700Z,4.49
2023-03-13T05:16:03.267Z,4.50
2023-03-13T05:17:03.254Z,4.56
2023-03-13T05:18:03.052Z,4.58
2023-03-13T05:19:03.420Z,4.59
2023-03-13T05:20:03.071Z,4.64
2023-03-13T05:21:02.855Z,4.68
2023-03-13T05:22:02.406Z,4.69
2023-03-13T05:23:02.100Z,4.70
2023-03-13T05:24:02.441Z,4.74
2023-03-13T05:25:02.216Z,4.73
2023-03-13T05:26:01.938Z,4.77
2023-03-13T05:27:03.015Z,4.77
2023-03-13T05:28:02.819Z,4.80
2023-03-13T05:29:03.360Z,4.81
2023-03-13T05:30:02.878Z,4.84
2023-03-13T05:31:02.689Z,4.87
2023-03-13T05:32:03.009Z,4.86
2023-03-13T05:33:02.808Z,4.88
2023-03-13T05:34:02.616Z,4.89
2023-03-13T05:35:03.184Z,4.91
2023-03-13T05:36:02.855Z,4.94
2023-03-13T05:37:03.277Z,4.95
2023-03-13T05:38:02.847Z,4.96
2023-03-13T05:39:03.287Z,4.99
2023-03-13T05:40:03.038Z,4.98
2023-03-13T05:41:02.869Z,4.97
2023-03-13T05:42:02.961Z,4.99
2023-03-13T05:43:02.635Z,5.01
2023-03-13T05:44:02.964Z,5.01
2023-03-13T05:45:02.825Z,5.01
2023-03-13T05:46:02.671Z,5.05
2023-03-13T05:47:04.181Z,5.03
2023-03-13T05:48:02.955Z,5.03
2023-03-13T05:49:03.339Z,5.05
2023-03-13T05:50:03.153Z,5.05
2023-03-13T05:51:02.987Z,5.06
2023-03-13T05:52:02.535Z,5.08
2023-03-13T05:53:02.061Z,5.08
2023-03-13T05:54:02.011Z,5.07
2023-03-13T05:55:02.512Z,5.11
2023-03-13T05:56:02.071Z,5.11
2023-03-13T05:57:02.509Z,5.11
2023-03-13T05:58:02.452Z,5.12
2023-03-13T05:59:01.971Z,5.13
2023-03-13T06:00:02.164Z,5.14
2023-03-13T06:01:01.997Z,5.14
2023-03-13T06:02:03.074Z,5.15
2023-03-13T06:03:02.832Z,5.16
2023-03-13T06:04:02.859Z,5.15
2023-03-13T06:05:02.820Z,4.64
2023-03-13T06:06:02.819Z,4.45
2023-03-13T06:07:01.849Z,4.32
2023-03-13T06:08:02.291Z,4.22
2023-03-13T06:09:02.281Z,4.13
2023-03-13T06:10:01.817Z,4.07
2023-03-13T06:11:01.699Z,4.00
2023-03-13T06:12:02.215Z,3.96
2023-03-13T06:13:17.222Z,3.90
2023-03-13T06:14:02.616Z,3.87
2023-03-13T06:15:02.503Z,3.82
2023-03-13T06:16:02.615Z,3.77
2023-03-13T06:17:01.710Z,3.72
2023-03-13T06:18:01.632Z,3.70
2023-03-13T06:19:02.121Z,3.66
2023-03-13T06:20:01.879Z,3.62
2023-03-13T06:21:01.724Z,3.58
2023-03-13T06:22:02.249Z,3.57
2023-03-13T06:23:02.811Z,3.53
2023-03-13T06:24:02.372Z,3.50
2023-03-13T06:25:02.243Z,3.48
2023-03-13T06:26:02.832Z,3.45
2023-03-13T06:27:02.440Z,3.42
2023-03-13T06:28:02.897Z,3.40
2023-03-13T06:29:02.873Z,3.37
2023-03-13T06:30:02.893Z,3.35
2023-03-13T06:31:02.732Z,3.34
2023-03-13T06:32:02.753Z,3.29
2023-03-13T06:33:02.732Z,3.28
2023-03-13T06:34:02.711Z,3.27
2023-03-13T06:35:02.752Z,3.24
2023-03-13T06:36:02.701Z,3.24
2023-03-13T06:37:02.574Z,3.20
2023-03-13T06:38:02.520Z,3.19
2023-03-13T06:39:02.813Z,3.16
2023-03-13T06:40:02.729Z,3.15
2023-03-13T06:41:02.561Z,3.14
2023-03-13T06:42:02.068Z,3.14
2023-03-13T06:43:02.636Z,3.12
2023-03-13T06:44:02.302Z,3.08
2023-03-13T06:45:02.433Z,3.05
2023-03-13T06:46:02.234Z,3.06
2023-03-13T06:47:01.889Z,3.03
2023-03-13T06:48:01.798Z,3.05
2023-03-13T06:49:01.640Z,3.03
2023-03-13T06:50:02.201Z,3.01
2023-03-13T06:51:01.748Z,2.99
2023-03-13T06:52:02.338Z,2.98
2023-03-13T06:53:02.132Z,2.95
2023-03-13T06:54:02.710Z,2.96
2023-03-13T06:55:02.340Z,2.96
2023-03-13T06:56:02.169Z,2.95
2023-03-13T06:57:02.634Z,2.93
2023-03-13T06:58:02.636Z,2.93
2023-03-13T06:59:03.067Z,2.90
2023-03-13T07:00:02.640Z,2.89
2023-03-13T07:01:02.624Z,2.88
2023-03-13T07:02:03.097Z,2.86
2023-03-13T07:03:02.942Z,2.85
2023-03-13T07:04:03.600Z,2.86
2023-03-13T07:05:03.293Z,2.86
2023-03-13T07:06:03.086Z,2.83
2023-03-13T07:07:02.660Z,2.81
2023-03-13T07:08:02.990Z,2.79
2023-03-13T07:09:02.873Z,2.81
2023-03-13T07:10:02.681Z,2.81
2023-03-13T07:11:02.642Z,2.80
2023-03-13T07:12:03.304Z,2.79
2023-03-13T07:13:03.155Z,2.77
2023-03-13T07:14:15.812Z,2.77
2023-03-13T07:15:03.559Z,2.76
2023-03-13T07:16:03.205Z,2.77
2023-03-13T07:17:02.714Z,2.74
2023-03-13T07:18:02.545Z,2.71
2023-03-13T07:19:02.644Z,2.74
2023-03-13T07:20:03.093Z,2.73
2023-03-13T07:21:02.883Z,2.71
2023-03-13T07:22:03.338Z,2.72
2023-03-13T07:23:03.151Z,2.73
2023-03-13T07:24:03.709Z,2.71
2023-03-13T07:25:03.153Z,2.69
2023-03-13T07:26:03.372Z,2.68
2023-03-13T07:27:07.585Z,2.69
2023-03-13T07:28:02.708Z,2.67
2023-03-13T07:29:02.551Z,2.68
2023-03-13T07:30:02.732Z,2.66
2023-03-13T07:31:02.972Z,2.67
2023-03-13T07:32:03.654Z,2.65
2023-03-13T07:33:03.436Z,2.64
2023-03-13T07:34:03.113Z,2.65
2023-03-13T07:35:03.598Z,2.62
2023-03-13T07:36:03.306Z,2.61
2023-03-13T07:37:02.781Z,2.63
2023-03-13T07:38:02.674Z,2.62
2023-03-13T07:39:02.562Z,2.60
2023-03-13T07:40:02.469Z,2.64
2023-03-13T07:41:02.885Z,2.58
2023-03-13T07:42:03.216Z,2.61
2023-03-13T07:43:03.394Z,2.60
2023-03-13T07:44:03.063Z,2.59
2023-03-13T07:45:02.806Z,2.59
2023-03-13T07:46:03.541Z,2.59
2023-03-13T07:47:03.241Z,2.57
2023-03-13T07:48:02.989Z,2.57
2023-03-13T07:49:03.448Z,2.57
2023-03-13T07:50:03.083Z,2.57
2023-03-13T07:51:02.971Z,2.57
2023-03-13T07:52:03.534Z,2.57
2023-03-13T07:53:03.482Z,2.58
2023-03-13T07:54:03.565Z,2.54
2023-03-13T07:55:03.674Z,2.52
2023-03-13T07:56:03.329Z,2.53
2023-03-13T07:57:03.006Z,2.54
2023-03-13T07:58:02.993Z,2.52
2023-03-13T07:59:02.603Z,2.53
2023-03-13T08:00:03.259Z,2.53
2023-03-13T08:01:02.922Z,2.51
2023-03-13T08:02:02.580Z,2.50
2023-03-13T08:03:02.324Z,2.51
2023-03-13T08:04:02.537Z,2.51
2023-03-13T08:05:02.353Z,2.50
2023-03-13T08:06:02.386Z,2.51
2023-03-13T08:07:02.877Z,2.49
2023-03-13T08:08:02.647Z,2.51
2023-03-13T08:09:02.964Z,2.48
2023-03-13T08:10:02.938Z,2.50
2023-03-13T08:11:02.636Z,2.46
2023-03-13T08:12:02.608Z,2.49
2023-03-13T08:13:02.202Z,2.46
2023-03-13T08:14:02.095Z,2.48
2023-03-13T08:15:02.467Z,2.46
2023-03-13T08:16:02.232Z,2.47
2023-03-13T08:17:02.769Z,2.48
2023-03-13T08:18:02.804Z,2.46
2023-03-13T08:19:02.419Z,2.43
2023-03-13T08:20:02.417Z,2.45
2023-03-13T08:21:02.585Z,2.46
2023-03-13T08:22:03.215Z,2.44
2023-03-13T08:23:02.961Z,2.46
2023-03-13T08:24:02.872Z,2.44
2023-03-13T08:25:02.757Z,2.45
2023-03-13T08:26:03.047Z,2.48
2023-03-13T08:27:03.377Z,2.44
2023-03-13T08:28:03.491Z,2.45
2023-03-13T08:29:03.126Z,2.44
2023-03-13T08:30:03.509Z,2.43
2023-03-13T08:31:02.878Z,2.44
2023-03-13T08:32:03.157Z,2.42
2023-03-13T08:33:03.089Z,2.42
2023-03-13T08:34:02.766Z,2.41
2023-03-13T08:35:02.769Z,2.41
2023-03-13T08:36:02.650Z,2.42
2023-03-13T08:37:02.907Z,2.41
2023-03-13T08:38:02.833Z,2.43
2023-03-13T08:39:02.630Z,2.42
2023-03-13T08:40:02.492Z,2.38
2023-03-13T08:41:02.409Z,2.43
2023-03-13T08:42:03.332Z,2.40
2023-03-13T08:43:03.129Z,2.42
2023-03-13T08:44:03.457Z,2.43
2023-03-13T08:45:03.350Z,2.39
2023-03-13T08:46:03.244Z,2.39
2023-03-13T08:47:02.298Z,2.39
2023-03-13T08:48:02.479Z,2.38
2023-03-13T08:49:02.432Z,2.39
2023-03-13T08:50:02.935Z,2.39
2023-03-13T08:51:02.370Z,2.38
2023-03-13T08:52:02.932Z,2.40
2023-03-13T08:53:03.486Z,2.39
2023-03-13T08:54:03.385Z,2.40
2023-03-13T08:55:03.012Z,2.41
2023-03-13T08:56:03.222Z,2.37
2023-03-13T08:57:03.613Z,2.37
2023-03-13T08:58:03.276Z,2.38
2023-03-13T08:59:03.064Z,2.39
2023-03-13T09:00:03.629Z,2.38
2023-03-13T09:01:03.233Z,2.36
2023-03-13T09:02:03.134Z,2.36
2023-03-13T09:03:03.539Z,2.38
2023-03-13T09:04:04.749Z,2.35
2023-03-13T09:05:03.261Z,2.34
2023-03-13T09:06:03.617Z,2.35
2023-03-13T09:07:03.257Z,2.37
2023-03-13T09:08:03.355Z,2.37
2023-03-13T09:09:03.860Z,2.36
2023-03-13T09:10:03.900Z,2.35
2023-03-13T09:11:03.316Z,2.36
2023-03-13T09:12:02.832Z,2.35
2023-03-13T09:13:03.336Z,2.34
2023-03-13T09:14:02.711Z,2.32
2023-03-13T09:15:02.909Z,2.35
2023-03-13T09:16:02.892Z,2.34
2023-03-13T09:17:03.333Z,2.35
2023-03-13T09:18:03.309Z,2.33
2023-03-13T09:19:03.515Z,2.32
2023-03-13T09:20:03.475Z,2.33
2023-03-13T09:21:03.752Z,2.34
2023-03-13T09:22:02.585Z,2.34
2023-03-13T09:23:03.019Z,2.34
2023-03-13T09:24:02.536Z,2.31
2023-03-13T09:25:02.734Z,2.31
2023-03-13T09:26:02.946Z,2.30
2023-03-13T09:27:02.841Z,2.31
2023-03-13T09:28:02.712Z,2.30
2023-03-13T09:29:03.121Z,2.29
2023-03-13T09:30:02.721Z,2.31
2023-03-13T09:31:03.065Z,2.30
2023-03-13T09:32:02.827Z,2.29
2023-03-13T09:33:02.919Z,2.32
2023-03-13T09:34:02.803Z,2.31
2023-03-13T09:35:03.157Z,2.30
2023-03-13T09:36:03.303Z,2.28
2023-03-13T09:37:03.109Z,2.28
2023-03-13T09:38:03.587Z,2.29
2023-03-13T09:39:03.058Z,2.27
2023-03-13T09:40:03.559Z,2.28
2023-03-13T09:41:06.316Z,2.28
2023-03-13T09:42:03.351Z,2.27
2023-03-13T09:43:03.424Z,2.29
2023-03-13T09:44:03.850Z,2.30
2023-03-13T09:45:03.475Z,2.26
2023-03-13T09:46:03.276Z,2.26
2023-03-13T09:47:03.099Z,2.28
2023-03-13T09:48:03.308Z,2.27
2023-03-13T09:49:03.393Z,2.27
2023-03-13T09:50:03.281Z,2.25
2023-03-13T09:51:03.154Z,2.28
2023-03-13T09:52:03.649Z,2.27
2023-03-13T09:53:03.365Z,2.24
2023-03-13T09:54:03.287Z,2.26
2023-03-13T09:55:03.358Z,2.26
2023-03-13T09:56:03.817Z,2.28
2023-03-13T09:57:03.618Z,2.26
2023-03-13T09:58:03.677Z,2.25
2023-03-13T09:59:03.674Z,2.24
2023-03-13T10:00:03.820Z,2.25
2023-03-13T10:01:03.735Z,2.26
2023-03-13T10:02:02.269Z,2.26
2023-03-13T10:03:02.161Z,2.25
2023-03-13T10:04:02.088Z,2.26
2023-03-13T10:05:01.949Z,2.24
2023-03-13T10:06:02.049Z,2.24
2023-03-13T10:07:02.513Z,2.23
2023-03-13T10:08:02.358Z,2.23
2023-03-13T10:09:02.754Z,2.24
2023-03-13T10:10:02.372Z,2.24
2023-03-13T10:11:02.220Z,2.26
2023-03-13T10:12:02.757Z,2.24
2023-03-13T10:13:02.614Z,2.23
2023-03-13T10:14:02.491Z,2.23
2023-03-13T10:15:03.153Z,2.23
2023-03-13T10:16:03.008Z,2.22
2023-03-13T10:17:02.817Z,2.22
2023-03-13T10:18:02.706Z,2.21
2023-03-13T10:19:02.479Z,2.24
2023-03-13T10:20:02.953Z,2.23
2023-03-13T10:21:02.632Z,2.22
2023-03-13T10:22:02.117Z,2.22
2023-03-13T10:23:01.815Z,2.21
2023-03-13T10:24:02.341Z,2.22
2023-03-13T10:25:01.743Z,2.19
2023-03-13T10:26:02.085Z,2.21
2023-03-13T10:27:02.480Z,2.20
2023-03-13T10:28:02.348Z,2.20
2023-03-13T10:29:02.129Z,2.18
2023-03-13T10:30:02.659Z,2.20
2023-03-13T10:31:02.519Z,2.20
2023-03-13T10:32:02.837Z,2.21
2023-03-13T10:33:02.695Z,2.19
2023-03-13T10:34:02.533Z,2.19
2023-03-13T10:35:02.649Z,2.19
2023-03-13T10:36:02.956Z,2.19
2023-03-13T10:37:02.371Z,2.21
2023-03-13T10:38:01.990Z,2.20
2023-03-13T10:39:02.192Z,2.20
2023-03-13T10:40:02.191Z,2.18
2023-03-13T10:41:01.954Z,2.18
2023-03-13T10:42:02.473Z,2.19
2023-03-13T10:43:02.333Z,2.18
2023-03-13T10:44:02.211Z,2.19
2023-03-13T10:45:02.279Z,2.17
2023-03-13T10:46:02.225Z,2.20
2023-03-13T10:47:02.826Z,2.19
2023-03-13T10:48:02.505Z,2.19
2023-03-13T10:49:02.533Z,2.18
2023-03-13T10:50:02.453Z,2.17
2023-03-13T10:51:02.562Z,2.18
2023-03-13T10:52:02.721Z,2.18
2023-03-13T10:53:03.135Z,2.18
2023-03-13T10:54:02.736Z,2.17
2023-03-13T10:55:02.541Z,2.16
2023-03-13T10:56:02.391Z,2.17
2023-03-13T10:57:02.827Z,2.15
2023-03-13T10:58:02.634Z,2.17
2023-03-13T10:59:02.825Z,2.18
2023-03-13T11:00:04.237Z,2.16
2023-03-13T11:01:02.577Z,2.13
2023-03-13T11:02:03.144Z,2.15
2023-03-13T11:03:03.319Z,2.15
2023-03-13T11:04:03.061Z,2.16
2023-03-13T11:05:02.789Z,2.15
2023-03-13T11:06:02.636Z,2.14
2023-03-13T11:07:03.552Z,2.15
2023-03-13T11:08:03.412Z,2.15
2023-03-13T11:09:03.209Z,2.15
2023-03-13T11:10:03.564Z,2.15
2023-03-13T11:11:03.412Z,2.15
2023-03-13T11:12:02.977Z,2.14
2023-03-13T11:13:02.634Z,2.13
2023-03-13T11:14:02.486Z,2.14
2023-03-13T11:15:03.072Z,2.15
2023-03-13T11:16:02.678Z,2.14
2023-03-13T11:17:03.180Z,2.14
2023-03-13T11:18:03.180Z,2.14
2023-03-13T11:19:02.791Z,2.15
2023-03-13T11:20:02.740Z,2.16
2023-03-13T11:21:15.934Z,2.13
2023-03-13T11:22:03.323Z,2.15
2023-03-13T11:23:02.917Z,2.15
2023-03-13T11:24:03.130Z,2.14
2023-03-13T11:25:03.289Z,2.15
2023-03-13T11:26:02.992Z,2.14
2023-03-13T11:27:05.124Z,2.13
2023-03-13T11:28:03.436Z,2.15
2023-03-13T11:29:03.235Z,2.15
2023-03-13T11:30:03.155Z,2.13
2023-03-13T11:31:03.605Z,2.12
2023-03-13T11:32:04.799Z,2.14
2023-03-13T11:33:03.444Z,2.14
2023-03-13T11:34:03.230Z,2.14
2023-03-13T11:35:03.690Z,2.12
2023-03-13T11:36:03.346Z,2.12
2023-03-13T11:37:03.926Z,2.12
2023-03-13T11:38:03.824Z,2.14
2023-03-13T11:39:03.566Z,2.13
2023-03-13T11:40:03.701Z,2.11
2023-03-13T11:41:04.093Z,2.11
2023-03-13T11:42:03.323Z,2.11
2023-03-13T11:43:14.268Z,2.11
2023-03-13T11:44:02.796Z,2.10
2023-03-13T11:45:03.237Z,2.10
2023-03-13T11:46:03.272Z,2.11
2023-03-13T11:47:03.622Z,2.10
2023-03-13T11:48:03.175Z,2.10
2023-03-13T11:49:03.055Z,2.11
2023-03-13T11:50:03.125Z,2.08
2023-03-13T11:51:03.220Z,2.09
2023-03-13T11:52:03.829Z,2.08
2023-03-13T11:53:03.553Z,2.09
2023-03-13T11:54:05.239Z,2.09
2023-03-13T11:55:03.392Z,2.10
2023-03-13T11:56:03.796Z,2.10
2023-03-13T11:57:03.254Z,2.07
2023-03-13T11:58:03.045Z,2.08
2023-03-13T11:59:02.972Z,2.06
2023-03-13T12:00:02.849Z,2.07
2023-03-13T12:01:03.371Z,2.07
2023-03-13T12:02:01.952Z,2.07
2023-03-13T12:03:02.239Z,2.09
2023-03-13T12:04:02.125Z,2.04
2023-03-13T12:05:02.081Z,2.06
2023-03-13T12:06:02.557Z,2.03
2023-03-13T12:07:04.612Z,2.04
2023-03-13T12:08:02.701Z,2.06
2023-03-13T12:09:02.437Z,2.05
2023-03-13T12:10:02.347Z,2.05
2023-03-13T12:11:02.827Z,2.03
2023-03-13T12:12:02.638Z,2.04
2023-03-13T12:13:02.251Z,2.03
2023-03-13T12:14:01.895Z,2.05
2023-03-13T12:15:01.835Z,2.04
2023-03-13T12:16:01.768Z,2.05
2023-03-13T12:17:01.660Z,2.04
2023-03-13T12:18:02.171Z,2.06
2023-03-13T12:19:02.064Z,2.04
2023-03-13T12:20:02.109Z,2.03
2023-03-13T12:21:01.971Z,2.02
2023-03-13T12:22:02.135Z,2.03
2023-03-13T12:23:02.599Z,2.04
2023-03-13T12:24:02.675Z,2.05
2023-03-13T12:25:04.474Z,2.02
2023-03-13T12:26:02.380Z,2.01
2023-03-13T12:27:02.272Z,2.02
2023-03-13T12:28:02.906Z,2.02
2023-03-13T12:29:02.558Z,2.00
2023-03-13T12:30:02.476Z,2.02
2023-03-13T12:31:03.090Z,2.05
2023-03-13T12:32:02.801Z,2.00
2023-03-13T12:33:02.427Z,1.99
2023-03-13T12:34:02.380Z,2.01
2023-03-13T12:35:02.256Z,2.01
2023-03-13T12:36:02.141Z,2.02
2023-03-13T12:37:02.624Z,2.00
2023-03-13T12:38:02.172Z,2.02
2023-03-13T12:39:02.113Z,2.00
2023-03-13T12:40:02.627Z,2.01
2023-03-13T12:41:02.450Z,2.00
2023-03-13T12:42:02.564Z,2.02
2023-03-13T12:43:02.326Z,2.00
2023-03-13T12:44:09.169Z,2.01
2023-03-13T12:45:02.749Z,1.99
2023-03-13T12:46:02.902Z,2.00
2023-03-13T12:47:02.509Z,1.98
2023-03-13T12:48:02.204Z,2.00
2023-03-13T12:49:01.921Z,2.00
2023-03-13T12:50:02.397Z,2.00
2023-03-13T12:51:02.347Z,2.00
2023-03-13T12:52:02.258Z,2.01
2023-03-13T12:53:02.780Z,2.01
2023-03-13T12:54:02.714Z,1.98
2023-03-13T12:55:02.909Z,2.00
2023-03-13T12:56:03.144Z,1.98
2023-03-13T12:57:02.871Z,2.01
2023-03-13T12:58:02.563Z,2.02
2023-03-13T12:59:02.559Z,2.01
2023-03-13T13:00:02.456Z,2.03
2023-03-13T13:01:02.436Z,2.00
2023-03-13T13:02:02.298Z,2.00
2023-03-13T13:03:02.940Z,2.01
2023-03-13T13:04:02.902Z,1.99
2023-03-13T13:05:02.710Z,2.00
2023-03-13T13:06:02.738Z,1.99
2023-03-13T13:07:03.028Z,2.01
2023-03-13T13:08:03.166Z,2.00
2023-03-13T13:09:03.160Z,2.00
2023-03-13T13:10:02.957Z,2.00
2023-03-13T13:11:02.996Z,2.02
2023-03-13T13:12:02.972Z,1.99
2023-03-13T13:13:02.641Z,1.99
2023-03-13T13:14:02.914Z,2.00
2023-03-13T13:15:02.549Z,2.00
2023-03-13T13:16:02.464Z,2.00
2023-03-13T13:17:02.341Z,1.99
2023-03-13T13:18:02.968Z,2.00